< < Back
Terminal Aerodrome Forecast


Current Version              Previous Versions:   1  2  3  4  5  6  7  8  9  

Terminal Aerodrome Forecast

610
FTUS42 KJAX 282300
TAFJAX
TAF
KJAX 282325Z 2900/2924 03002KT P6SM SKC
     FM291400 06004KT P6SM FEW025
     FM291800 12005KT P6SM FEW030=



Latest METAR

002
SAUS80 KWBC 290000
MTRJAX
METAR KJAX 282356Z 05003KT 10SM CLR 06/03 A3033 RMK AO2 SLP270 T00560033
10117 20056 51008 $


USA.gov is the U.S. government's official web portal to all federal, state and local government web resources and services.